sensor_id;sensor_type;location;lat;lon;timestamp;P1;durP1;ratioP1;P2;durP2;ratioP2
63945;SDS011;50122;56.330;43.838;2023-01-20T00:01:07;10.35;;;4.53;;
63945;SDS011;50122;56.330;43.838;2023-01-20T00:03:35;12.82;;;4.38;;
63945;SDS011;50122;56.330;43.838;2023-01-20T00:06:03;10.15;;;4.57;;
63945;SDS011;50122;56.330;43.838;2023-01-20T00:08:29;10.00;;;4.47;;
63945;SDS011;50122;56.330;43.838;2023-01-20T00:10:56;12.27;;;4.70;;
63945;SDS011;50122;56.330;43.838;2023-01-20T00:13:24;8.75;;;4.30;;
63945;SDS011;50122;56.330;43.838;2023-01-20T00:15:50;10.07;;;4.05;;
63945;SDS011;50122;56.330;43.838;2023-01-20T00:18:17;9.27;;;5.13;;
63945;SDS011;50122;56.330;43.838;2023-01-20T00:20:44;10.82;;;4.63;;
63945;SDS011;50122;56.330;43.838;2023-01-20T00:23:11;9.48;;;4.35;;
63945;SDS011;50122;56.330;43.838;2023-01-20T00:25:37;8.13;;;4.40;;
63945;SDS011;50122;56.330;43.838;2023-01-20T00:28:04;9.80;;;4.15;;
63945;SDS011;50122;56.330;43.838;2023-01-20T00:30:31;10.80;;;4.40;;
63945;SDS011;50122;56.330;43.838;2023-01-20T00:32:58;7.50;;;4.20;;
63945;SDS011;50122;56.330;43.838;2023-01-20T00:35:24;8.70;;;4.13;;
63945;SDS011;50122;56.330;43.838;2023-01-20T00:37:51;9.43;;;5.05;;
63945;SDS011;50122;56.330;43.838;2023-01-20T00:40:17;10.13;;;4.32;;
63945;SDS011;50122;56.330;43.838;2023-01-20T00:42:46;9.90;;;5.00;;
63945;SDS011;50122;56.330;43.838;2023-01-20T00:45:12;9.98;;;5.10;;
63945;SDS011;50122;56.330;43.838;2023-01-20T00:47:40;9.07;;;3.90;;
63945;SDS011;50122;56.330;43.838;2023-01-20T00:50:08;9.80;;;4.55;;
63945;SDS011;50122;56.330;43.838;2023-01-20T00:52:35;8.93;;;4.78;;
63945;SDS011;50122;56.330;43.838;2023-01-20T00:55:02;10.77;;;4.55;;
63945;SDS011;50122;56.330;43.838;2023-01-20T00:57:29;11.45;;;4.97;;
63945;SDS011;50122;56.330;43.838;2023-01-20T00:59:58;11.73;;;4.75;;
63945;SDS011;50122;56.330;43.838;2023-01-20T01:02:25;10.82;;;4.50;;
63945;SDS011;50122;56.330;43.838;2023-01-20T01:04:52;11.70;;;4.95;;
63945;SDS011;50122;56.330;43.838;2023-01-20T01:07:19;9.13;;;4.80;;
63945;SDS011;50122;56.330;43.838;2023-01-20T01:09:45;10.15;;;4.60;;
63945;SDS011;50122;56.330;43.838;2023-01-20T01:12:12;11.93;;;4.30;;
63945;SDS011;50122;56.330;43.838;2023-01-20T01:14:39;9.15;;;4.75;;
63945;SDS011;50122;56.330;43.838;2023-01-20T01:17:05;9.10;;;4.43;;
63945;SDS011;50122;56.330;43.838;2023-01-20T01:19:32;10.50;;;4.45;;
63945;SDS011;50122;56.330;43.838;2023-01-20T01:21:59;9.48;;;4.45;;
63945;SDS011;50122;56.330;43.838;2023-01-20T01:24:25;9.27;;;4.43;;
63945;SDS011;50122;56.330;43.838;2023-01-20T01:26:54;13.02;;;4.63;;
63945;SDS011;50122;56.330;43.838;2023-01-20T01:29:20;8.98;;;4.32;;
63945;SDS011;50122;56.330;43.838;2023-01-20T01:31:47;12.68;;;4.65;;
63945;SDS011;50122;56.330;43.838;2023-01-20T01:34:14;11.45;;;5.03;;
63945;SDS011;50122;56.330;43.838;2023-01-20T01:36:40;8.70;;;3.92;;
63945;SDS011;50122;56.330;43.838;2023-01-20T01:39:07;8.65;;;4.28;;
63945;SDS011;50122;56.330;43.838;2023-01-20T01:41:34;10.65;;;4.82;;
63945;SDS011;50122;56.330;43.838;2023-01-20T01:44:04;11.48;;;4.95;;
63945;SDS011;50122;56.330;43.838;2023-01-20T01:46:38;8.15;;;4.60;;
63945;SDS011;50122;56.330;43.838;2023-01-20T01:49:14;10.70;;;4.63;;
63945;SDS011;50122;56.330;43.838;2023-01-20T01:54:38;10.32;;;4.43;;
63945;SDS011;50122;56.330;43.838;2023-01-20T01:57:09;10.38;;;4.50;;
63945;SDS011;50122;56.330;43.838;2023-01-20T01:59:38;9.15;;;4.53;;
63945;SDS011;50122;56.330;43.838;2023-01-20T02:02:05;10.00;;;4.65;;
63945;SDS011;50122;56.330;43.838;2023-01-20T02:04:32;13.65;;;4.72;;
63945;SDS011;50122;56.330;43.838;2023-01-20T02:07:05;9.77;;;4.50;;
63945;SDS011;50122;56.330;43.838;2023-01-20T02:09:35;9.38;;;4.75;;
63945;SDS011;50122;56.330;43.838;2023-01-20T02:12:05;10.75;;;4.78;;
63945;SDS011;50122;56.330;43.838;2023-01-20T02:14:39;9.18;;;4.65;;
63945;SDS011;50122;56.330;43.838;2023-01-20T02:22:32;9.10;;;4.93;;
63945;SDS011;50122;56.330;43.838;2023-01-20T02:42:43;10.32;;;5.10;;
63945;SDS011;50122;56.330;43.838;2023-01-20T02:45:36;9.93;;;5.18;;
63945;SDS011;50122;56.330;43.838;2023-01-20T02:48:12;15.35;;;5.95;;
63945;SDS011;50122;56.330;43.838;2023-01-20T02:50:57;12.32;;;5.95;;
63945;SDS011;50122;56.330;43.838;2023-01-20T02:53:24;11.93;;;5.20;;
63945;SDS011;50122;56.330;43.838;2023-01-20T02:55:56;9.10;;;4.95;;
63945;SDS011;50122;56.330;43.838;2023-01-20T02:58:28;10.30;;;5.68;;
63945;SDS011;50122;56.330;43.838;2023-01-20T03:01:10;15.60;;;5.43;;
63945;SDS011;50122;56.330;43.838;2023-01-20T03:03:41;11.10;;;6.25;;
63945;SDS011;50122;56.330;43.838;2023-01-20T03:06:13;12.77;;;6.25;;
63945;SDS011;50122;56.330;43.838;2023-01-20T03:08:44;10.88;;;6.50;;
63945;SDS011;50122;56.330;43.838;2023-01-20T03:11:13;11.30;;;6.13;;
63945;SDS011;50122;56.330;43.838;2023-01-20T03:13:46;10.43;;;5.38;;
63945;SDS011;50122;56.330;43.838;2023-01-20T03:16:14;11.45;;;5.53;;
63945;SDS011;50122;56.330;43.838;2023-01-20T03:18:45;14.15;;;7.78;;
63945;SDS011;50122;56.330;43.838;2023-01-20T03:21:12;11.13;;;6.43;;
63945;SDS011;50122;56.330;43.838;2023-01-20T03:23:41;12.98;;;5.78;;
63945;SDS011;50122;56.330;43.838;2023-01-20T03:26:12;11.27;;;6.32;;
63945;SDS011;50122;56.330;43.838;2023-01-20T03:28:40;13.30;;;6.38;;
63945;SDS011;50122;56.330;43.838;2023-01-20T03:31:20;11.23;;;5.60;;
63945;SDS011;50122;56.330;43.838;2023-01-20T03:33:50;9.55;;;5.65;;
63945;SDS011;50122;56.330;43.838;2023-01-20T03:36:20;12.18;;;6.38;;
63945;SDS011;50122;56.330;43.838;2023-01-20T03:38:50;13.90;;;6.38;;
63945;SDS011;50122;56.330;43.838;2023-01-20T03:41:23;13.13;;;6.10;;
63945;SDS011;50122;56.330;43.838;2023-01-20T03:46:46;12.77;;;5.85;;
63945;SDS011;50122;56.330;43.838;2023-01-20T03:52:22;11.50;;;6.35;;
63945;SDS011;50122;56.330;43.838;2023-01-20T03:55:20;11.60;;;5.78;;
63945;SDS011;50122;56.330;43.838;2023-01-20T03:57:57;13.38;;;7.05;;
63945;SDS011;50122;56.330;43.838;2023-01-20T04:00:35;12.55;;;6.75;;
63945;SDS011;50122;56.330;43.838;2023-01-20T04:03:14;11.45;;;6.10;;
63945;SDS011;50122;56.330;43.838;2023-01-20T04:05:44;14.18;;;6.50;;
63945;SDS011;50122;56.330;43.838;2023-01-20T04:08:13;12.95;;;7.00;;
63945;SDS011;50122;56.330;43.838;2023-01-20T04:10:43;13.85;;;6.82;;
63945;SDS011;50122;56.330;43.838;2023-01-20T04:13:13;12.73;;;5.88;;
63945;SDS011;50122;56.330;43.838;2023-01-20T04:15:42;13.55;;;7.60;;
63945;SDS011;50122;56.330;43.838;2023-01-20T04:20:37;13.88;;;7.00;;
63945;SDS011;50122;56.330;43.838;2023-01-20T04:23:05;14.65;;;8.18;;
63945;SDS011;50122;56.330;43.838;2023-01-20T04:25:35;20.77;;;10.40;;
63945;SDS011;50122;56.330;43.838;2023-01-20T04:28:02;14.88;;;7.22;;
63945;SDS011;50122;56.330;43.838;2023-01-20T04:30:32;12.88;;;6.80;;
63945;SDS011;50122;56.330;43.838;2023-01-20T04:32:59;13.70;;;8.25;;
63945;SDS011;50122;56.330;43.838;2023-01-20T04:35:25;14.43;;;7.43;;
63945;SDS011;50122;56.330;43.838;2023-01-20T04:37:52;16.05;;;7.30;;
63945;SDS011;50122;56.330;43.838;2023-01-20T04:40:19;11.73;;;6.95;;
63945;SDS011;50122;56.330;43.838;2023-01-20T04:42:46;19.40;;;8.68;;
63945;SDS011;50122;56.330;43.838;2023-01-20T04:45:15;14.43;;;7.47;;
63945;SDS011;50122;56.330;43.838;2023-01-20T04:47:43;17.80;;;8.25;;
63945;SDS011;50122;56.330;43.838;2023-01-20T04:50:10;13.35;;;7.25;;
63945;SDS011;50122;56.330;43.838;2023-01-20T04:52:38;13.60;;;7.00;;
63945;SDS011;50122;56.330;43.838;2023-01-20T04:55:05;12.88;;;7.13;;
63945;SDS011;50122;56.330;43.838;2023-01-20T04:57:33;15.43;;;8.00;;
63945;SDS011;50122;56.330;43.838;2023-01-20T05:00:03;18.05;;;9.52;;
63945;SDS011;50122;56.330;43.838;2023-01-20T05:02:31;17.77;;;8.65;;
63945;SDS011;50122;56.330;43.838;2023-01-20T05:04:58;15.02;;;7.40;;
63945;SDS011;50122;56.330;43.838;2023-01-20T05:07:24;11.68;;;5.95;;
63945;SDS011;50122;56.330;43.838;2023-01-20T05:09:51;17.95;;;8.70;;
63945;SDS011;50122;56.330;43.838;2023-01-20T05:12:22;15.10;;;7.97;;
63945;SDS011;50122;56.330;43.838;2023-01-20T05:14:48;12.73;;;7.97;;
63945;SDS011;50122;56.330;43.838;2023-01-20T05:17:15;15.23;;;8.35;;
63945;SDS011;50122;56.330;43.838;2023-01-20T05:19:41;13.95;;;7.68;;
63945;SDS011;50122;56.330;43.838;2023-01-20T05:22:08;17.25;;;7.93;;
63945;SDS011;50122;56.330;43.838;2023-01-20T05:24:35;12.65;;;6.85;;
63945;SDS011;50122;56.330;43.838;2023-01-20T05:27:03;15.27;;;7.93;;
63945;SDS011;50122;56.330;43.838;2023-01-20T05:29:29;17.17;;;8.93;;
63945;SDS011;50122;56.330;43.838;2023-01-20T05:31:56;12.90;;;6.90;;
63945;SDS011;50122;56.330;43.838;2023-01-20T05:34:23;14.23;;;7.50;;
63945;SDS011;50122;56.330;43.838;2023-01-20T05:36:51;15.95;;;8.35;;
63945;SDS011;50122;56.330;43.838;2023-01-20T05:39:18;17.17;;;8.05;;
63945;SDS011;50122;56.330;43.838;2023-01-20T05:41:46;14.25;;;7.72;;
63945;SDS011;50122;56.330;43.838;2023-01-20T05:44:14;14.68;;;7.03;;
63945;SDS011;50122;56.330;43.838;2023-01-20T05:46:41;15.98;;;8.50;;
63945;SDS011;50122;56.330;43.838;2023-01-20T05:49:10;13.70;;;7.35;;
63945;SDS011;50122;56.330;43.838;2023-01-20T05:51:37;14.98;;;7.30;;
63945;SDS011;50122;56.330;43.838;2023-01-20T05:54:04;13.25;;;6.45;;
63945;SDS011;50122;56.330;43.838;2023-01-20T05:56:31;11.73;;;6.43;;
63945;SDS011;50122;56.330;43.838;2023-01-20T05:58:58;13.13;;;7.47;;
63945;SDS011;50122;56.330;43.838;2023-01-20T06:01:27;15.07;;;6.72;;
63945;SDS011;50122;56.330;43.838;2023-01-20T06:03:55;13.77;;;6.20;;
63945;SDS011;50122;56.330;43.838;2023-01-20T06:06:22;11.18;;;6.07;;
63945;SDS011;50122;56.330;43.838;2023-01-20T06:08:50;10.88;;;6.35;;
63945;SDS011;50122;56.330;43.838;2023-01-20T06:11:18;9.52;;;5.50;;
63945;SDS011;50122;56.330;43.838;2023-01-20T06:13:46;11.77;;;6.43;;
63945;SDS011;50122;56.330;43.838;2023-01-20T06:16:14;10.43;;;5.88;;
63945;SDS011;50122;56.330;43.838;2023-01-20T06:18:45;12.98;;;6.65;;
63945;SDS011;50122;56.330;43.838;2023-01-20T06:21:12;11.25;;;6.22;;
63945;SDS011;50122;56.330;43.838;2023-01-20T06:23:38;10.82;;;6.40;;
63945;SDS011;50122;56.330;43.838;2023-01-20T06:26:09;10.90;;;5.25;;
63945;SDS011;50122;56.330;43.838;2023-01-20T06:28:38;10.73;;;5.35;;
63945;SDS011;50122;56.330;43.838;2023-01-20T06:31:06;11.10;;;5.57;;
63945;SDS011;50122;56.330;43.838;2023-01-20T06:33:35;12.05;;;4.95;;
63945;SDS011;50122;56.330;43.838;2023-01-20T06:36:02;8.68;;;4.30;;
63945;SDS011;50122;56.330;43.838;2023-01-20T06:38:30;11.40;;;4.90;;
63945;SDS011;50122;56.330;43.838;2023-01-20T06:40:58;8.35;;;3.75;;
63945;SDS011;50122;56.330;43.838;2023-01-20T06:43:30;9.82;;;4.28;;
63945;SDS011;50122;56.330;43.838;2023-01-20T06:46:03;7.65;;;3.67;;
63945;SDS011;50122;56.330;43.838;2023-01-20T06:48:32;9.93;;;3.72;;
63945;SDS011;50122;56.330;43.838;2023-01-20T06:51:02;11.13;;;4.57;;
63945;SDS011;50122;56.330;43.838;2023-01-20T06:53:33;8.63;;;3.83;;
63945;SDS011;50122;56.330;43.838;2023-01-20T06:56:00;8.60;;;3.50;;
63945;SDS011;50122;56.330;43.838;2023-01-20T06:58:28;6.93;;;3.10;;
63945;SDS011;50122;56.330;43.838;2023-01-20T07:00:56;7.47;;;3.38;;
63945;SDS011;50122;56.330;43.838;2023-01-20T07:03:24;8.40;;;3.15;;
63945;SDS011;50122;56.330;43.838;2023-01-20T07:05:52;8.30;;;3.63;;
63945;SDS011;50122;56.330;43.838;2023-01-20T07:08:22;7.57;;;3.28;;
63945;SDS011;50122;56.330;43.838;2023-01-20T07:10:49;5.82;;;3.22;;
